Airfield :
LOGIN :

Register | Disclaimer

   EN    FR    IT 

 










Legend :    VFR   Marginal VFR   IFR   Intensive IFR   Very Intensive IFR
Visi :
Ceiling :
>= 8 km
>= 3000ft
5 to 8 km
1000 to 3000 ft
1500m to 5 km
500 to 1000 ft
800 to 1500m
200 to 500 ft
< 800m
< 200 ft
Symbols :   Thunderstorms  Fog  Heavy snow  Heavy precipitations  Wind > 20 kt
SIGMETs :     Misc.  Thunderstorms  Icing  Turbulence  Mountain Waves  Volcanic Ashes







- Airport Elevation : 427 ft
- IATA code : CIA


LIRA - Roma Ciampino

CURRENT METAR :
  • 241650Z 21005KT 180V240 CAVOK 25/19 Q1014

EXPIRED METARs :
  • 241620Z 22005KT 180V250 9999 FEW045 26/19 Q1014
  • 241550Z 22005KT 180V270 CAVOK 27/19 Q1014
  • 241520Z 21006KT 170V260 9999 FEW040 27/19 Q1014
  • 241450Z 22005KT 180V280 9999 FEW040 27/20 Q1013
  • 241420Z 22006KT 180V260 9999 FEW035 28/20 Q1013

TAF TAF LIRA
Valid from the 24 at 12:00 until the 25 at 12:00 UTC


241100Z 2412/2512 16010KT 9999 SCT030
TEMPO 2415/2418 RA
BECMG 2420/2422 04010KT
TEMPO 2500/2506 RA
No reported NOTAMs for that airfield.



MET'MAP, your aeronautical weather chart ! - Copyright ORBIFLY December 2007 - Disclaimer

ORBIFLY MET'MAP TEAM :

Programming & Development : Alexandra Zaïnal
Concept & Development : Baudouin d'Aumeries
Co-Development & Prog : Marc-Olivier Méhu
Technical & hardware support : Manuel Goepfert

Contact : metmap@orbifly.com




SOURCES & CREDITS :

   NOAA